sensor_id;sensor_type;location;lat;lon;timestamp;P1;durP1;ratioP1;P2;durP2;ratioP2
3379;SDS011;1703;51.964;7.642;2024-03-17T00:02:06;8.50;;;4.53;;
3379;SDS011;1703;51.964;7.642;2024-03-17T00:04:33;10.37;;;5.27;;
3379;SDS011;1703;51.964;7.642;2024-03-17T00:07:00;22.53;;;5.30;;
3379;SDS011;1703;51.964;7.642;2024-03-17T00:09:27;6.93;;;5.30;;
3379;SDS011;1703;51.964;7.642;2024-03-17T00:11:54;22.87;;;4.97;;
3379;SDS011;1703;51.964;7.642;2024-03-17T00:14:21;5.97;;;3.70;;
3379;SDS011;1703;51.964;7.642;2024-03-17T00:16:48;11.47;;;5.27;;
3379;SDS011;1703;51.964;7.642;2024-03-17T00:19:14;4.37;;;3.47;;
3379;SDS011;1703;51.964;7.642;2024-03-17T00:21:42;14.83;;;5.70;;
3379;SDS011;1703;51.964;7.642;2024-03-17T00:24:09;12.13;;;4.40;;
3379;SDS011;1703;51.964;7.642;2024-03-17T00:26:36;9.47;;;5.37;;
3379;SDS011;1703;51.964;7.642;2024-03-17T00:29:01;9.27;;;4.07;;
3379;SDS011;1703;51.964;7.642;2024-03-17T00:31:28;9.57;;;5.20;;
3379;SDS011;1703;51.964;7.642;2024-03-17T00:33:54;10.60;;;5.63;;
3379;SDS011;1703;51.964;7.642;2024-03-17T00:36:21;10.53;;;5.53;;
3379;SDS011;1703;51.964;7.642;2024-03-17T00:38:48;9.80;;;5.90;;
3379;SDS011;1703;51.964;7.642;2024-03-17T00:41:15;14.03;;;6.83;;
3379;SDS011;1703;51.964;7.642;2024-03-17T00:43:42;12.10;;;6.10;;
3379;SDS011;1703;51.964;7.642;2024-03-17T00:46:07;8.20;;;5.30;;
3379;SDS011;1703;51.964;7.642;2024-03-17T00:48:34;12.80;;;6.70;;
3379;SDS011;1703;51.964;7.642;2024-03-17T00:51:00;12.37;;;5.90;;
3379;SDS011;1703;51.964;7.642;2024-03-17T00:53:27;7.67;;;4.40;;
3379;SDS011;1703;51.964;7.642;2024-03-17T00:55:54;9.80;;;5.10;;
3379;SDS011;1703;51.964;7.642;2024-03-17T00:58:24;11.43;;;5.70;;
3379;SDS011;1703;51.964;7.642;2024-03-17T01:00:50;8.97;;;5.63;;
3379;SDS011;1703;51.964;7.642;2024-03-17T01:03:17;14.53;;;5.00;;
3379;SDS011;1703;51.964;7.642;2024-03-17T01:05:43;11.97;;;6.20;;
3379;SDS011;1703;51.964;7.642;2024-03-17T01:08:12;7.90;;;4.97;;
3379;SDS011;1703;51.964;7.642;2024-03-17T01:10:38;8.77;;;5.30;;
3379;SDS011;1703;51.964;7.642;2024-03-17T01:13:06;12.27;;;7.37;;
3379;SDS011;1703;51.964;7.642;2024-03-17T01:15:34;9.40;;;5.37;;
3379;SDS011;1703;51.964;7.642;2024-03-17T01:18:02;10.40;;;4.73;;
3379;SDS011;1703;51.964;7.642;2024-03-17T01:20:29;11.27;;;4.83;;
3379;SDS011;1703;51.964;7.642;2024-03-17T01:22:56;8.97;;;5.60;;
3379;SDS011;1703;51.964;7.642;2024-03-17T01:25:22;10.20;;;4.33;;
3379;SDS011;1703;51.964;7.642;2024-03-17T01:27:50;11.57;;;6.30;;
3379;SDS011;1703;51.964;7.642;2024-03-17T01:30:17;20.53;;;6.50;;
3379;SDS011;1703;51.964;7.642;2024-03-17T01:32:46;10.53;;;6.00;;
3379;SDS011;1703;51.964;7.642;2024-03-17T01:35:12;7.30;;;5.10;;
3379;SDS011;1703;51.964;7.642;2024-03-17T01:37:40;11.43;;;5.80;;
3379;SDS011;1703;51.964;7.642;2024-03-17T01:40:07;9.60;;;5.67;;
3379;SDS011;1703;51.964;7.642;2024-03-17T01:42:35;19.97;;;6.90;;
3379;SDS011;1703;51.964;7.642;2024-03-17T01:45:01;12.10;;;5.20;;
3379;SDS011;1703;51.964;7.642;2024-03-17T01:47:51;11.40;;;5.90;;
3379;SDS011;1703;51.964;7.642;2024-03-17T01:50:18;8.60;;;6.80;;
3379;SDS011;1703;51.964;7.642;2024-03-17T01:52:50;8.90;;;6.37;;
3379;SDS011;1703;51.964;7.642;2024-03-17T01:55:18;10.67;;;5.90;;
3379;SDS011;1703;51.964;7.642;2024-03-17T01:57:47;8.00;;;6.53;;
3379;SDS011;1703;51.964;7.642;2024-03-17T02:00:15;9.53;;;6.17;;
3379;SDS011;1703;51.964;7.642;2024-03-17T02:02:42;8.40;;;6.20;;
3379;SDS011;1703;51.964;7.642;2024-03-17T02:05:10;8.00;;;5.83;;
3379;SDS011;1703;51.964;7.642;2024-03-17T02:07:39;9.50;;;5.73;;
3379;SDS011;1703;51.964;7.642;2024-03-17T02:10:08;14.10;;;6.60;;
3379;SDS011;1703;51.964;7.642;2024-03-17T02:12:35;10.07;;;4.87;;
3379;SDS011;1703;51.964;7.642;2024-03-17T02:15:03;10.47;;;5.03;;
3379;SDS011;1703;51.964;7.642;2024-03-17T02:17:30;8.57;;;5.53;;
3379;SDS011;1703;51.964;7.642;2024-03-17T02:19:58;15.07;;;6.23;;
3379;SDS011;1703;51.964;7.642;2024-03-17T02:22:25;5.60;;;5.00;;
3379;SDS011;1703;51.964;7.642;2024-03-17T02:24:53;13.87;;;6.20;;
3379;SDS011;1703;51.964;7.642;2024-03-17T02:27:20;10.10;;;6.57;;
3379;SDS011;1703;51.964;7.642;2024-03-17T02:29:47;14.77;;;6.87;;
3379;SDS011;1703;51.964;7.642;2024-03-17T02:32:13;13.63;;;7.03;;
3379;SDS011;1703;51.964;7.642;2024-03-17T02:34:40;11.53;;;5.70;;
3379;SDS011;1703;51.964;7.642;2024-03-17T02:37:06;8.50;;;5.23;;
3379;SDS011;1703;51.964;7.642;2024-03-17T02:39:35;13.10;;;5.90;;
3379;SDS011;1703;51.964;7.642;2024-03-17T02:42:02;12.10;;;6.27;;
3379;SDS011;1703;51.964;7.642;2024-03-17T02:44:30;11.93;;;5.10;;
3379;SDS011;1703;51.964;7.642;2024-03-17T02:46:57;8.37;;;5.50;;
3379;SDS011;1703;51.964;7.642;2024-03-17T02:49:24;14.33;;;5.37;;
3379;SDS011;1703;51.964;7.642;2024-03-17T02:51:52;12.87;;;4.93;;
3379;SDS011;1703;51.964;7.642;2024-03-17T02:54:20;9.20;;;5.80;;
3379;SDS011;1703;51.964;7.642;2024-03-17T02:56:49;7.97;;;4.60;;
3379;SDS011;1703;51.964;7.642;2024-03-17T02:59:17;14.63;;;5.00;;
3379;SDS011;1703;51.964;7.642;2024-03-17T03:01:44;9.87;;;5.50;;
3379;SDS011;1703;51.964;7.642;2024-03-17T03:04:11;9.37;;;5.20;;
3379;SDS011;1703;51.964;7.642;2024-03-17T03:06:38;8.70;;;5.50;;
3379;SDS011;1703;51.964;7.642;2024-03-17T03:09:05;8.03;;;4.50;;
3379;SDS011;1703;51.964;7.642;2024-03-17T03:11:37;7.60;;;4.80;;
3379;SDS011;1703;51.964;7.642;2024-03-17T03:14:06;6.37;;;4.37;;
3379;SDS011;1703;51.964;7.642;2024-03-17T03:16:34;9.80;;;4.70;;
3379;SDS011;1703;51.964;7.642;2024-03-17T03:19:02;9.43;;;4.67;;
3379;SDS011;1703;51.964;7.642;2024-03-17T03:21:30;10.63;;;4.50;;
3379;SDS011;1703;51.964;7.642;2024-03-17T03:23:58;11.70;;;4.70;;
3379;SDS011;1703;51.964;7.642;2024-03-17T03:26:25;9.40;;;5.53;;
3379;SDS011;1703;51.964;7.642;2024-03-17T03:28:54;8.00;;;5.30;;
3379;SDS011;1703;51.964;7.642;2024-03-17T03:31:23;9.70;;;5.77;;
3379;SDS011;1703;51.964;7.642;2024-03-17T03:33:50;11.93;;;4.70;;
3379;SDS011;1703;51.964;7.642;2024-03-17T03:36:20;8.33;;;4.43;;
3379;SDS011;1703;51.964;7.642;2024-03-17T03:38:47;11.23;;;4.97;;
3379;SDS011;1703;51.964;7.642;2024-03-17T03:41:15;7.50;;;4.60;;
3379;SDS011;1703;51.964;7.642;2024-03-17T03:43:43;16.47;;;4.80;;
3379;SDS011;1703;51.964;7.642;2024-03-17T03:46:12;8.50;;;4.60;;
3379;SDS011;1703;51.964;7.642;2024-03-17T03:48:40;8.93;;;4.33;;
3379;SDS011;1703;51.964;7.642;2024-03-17T03:51:08;9.80;;;5.17;;
3379;SDS011;1703;51.964;7.642;2024-03-17T03:53:36;7.33;;;4.33;;
3379;SDS011;1703;51.964;7.642;2024-03-17T03:56:05;6.27;;;5.10;;
3379;SDS011;1703;51.964;7.642;2024-03-17T03:58:33;6.10;;;4.23;;
3379;SDS011;1703;51.964;7.642;2024-03-17T04:01:01;7.30;;;4.40;;
3379;SDS011;1703;51.964;7.642;2024-03-17T04:03:31;10.70;;;5.40;;
3379;SDS011;1703;51.964;7.642;2024-03-17T04:06:04;9.77;;;5.20;;
3379;SDS011;1703;51.964;7.642;2024-03-17T04:08:33;14.17;;;5.97;;
3379;SDS011;1703;51.964;7.642;2024-03-17T04:11:00;11.00;;;5.60;;
3379;SDS011;1703;51.964;7.642;2024-03-17T04:13:27;15.13;;;4.80;;
3379;SDS011;1703;51.964;7.642;2024-03-17T04:15:56;7.20;;;5.90;;
3379;SDS011;1703;51.964;7.642;2024-03-17T04:18:24;7.70;;;5.13;;
3379;SDS011;1703;51.964;7.642;2024-03-17T04:20:52;10.50;;;6.90;;
3379;SDS011;1703;51.964;7.642;2024-03-17T04:23:21;7.97;;;5.63;;
3379;SDS011;1703;51.964;7.642;2024-03-17T04:25:48;8.07;;;5.77;;
3379;SDS011;1703;51.964;7.642;2024-03-17T04:28:18;10.73;;;6.67;;
3379;SDS011;1703;51.964;7.642;2024-03-17T04:30:45;6.70;;;5.33;;
3379;SDS011;1703;51.964;7.642;2024-03-17T04:33:13;6.27;;;5.67;;
3379;SDS011;1703;51.964;7.642;2024-03-17T04:35:42;12.63;;;6.93;;
3379;SDS011;1703;51.964;7.642;2024-03-17T04:38:09;6.30;;;5.70;;
3379;SDS011;1703;51.964;7.642;2024-03-17T04:40:40;6.73;;;5.20;;
3379;SDS011;1703;51.964;7.642;2024-03-17T04:43:08;8.00;;;5.47;;
3379;SDS011;1703;51.964;7.642;2024-03-17T04:45:35;7.93;;;5.93;;
3379;SDS011;1703;51.964;7.642;2024-03-17T04:48:02;11.87;;;5.50;;
3379;SDS011;1703;51.964;7.642;2024-03-17T04:50:30;8.77;;;5.20;;
3379;SDS011;1703;51.964;7.642;2024-03-17T04:52:58;12.80;;;5.23;;
3379;SDS011;1703;51.964;7.642;2024-03-17T04:55:25;9.13;;;5.87;;
3379;SDS011;1703;51.964;7.642;2024-03-17T04:57:55;11.60;;;5.00;;
3379;SDS011;1703;51.964;7.642;2024-03-17T05:00:22;15.60;;;6.30;;
3379;SDS011;1703;51.964;7.642;2024-03-17T05:02:49;8.43;;;5.53;;
3379;SDS011;1703;51.964;7.642;2024-03-17T05:05:16;13.90;;;6.27;;
3379;SDS011;1703;51.964;7.642;2024-03-17T05:07:43;7.80;;;5.50;;
3379;SDS011;1703;51.964;7.642;2024-03-17T05:10:11;11.47;;;6.57;;
3379;SDS011;1703;51.964;7.642;2024-03-17T05:12:38;8.73;;;6.27;;
3379;SDS011;1703;51.964;7.642;2024-03-17T05:15:07;10.10;;;7.03;;
3379;SDS011;1703;51.964;7.642;2024-03-17T05:17:35;11.20;;;7.77;;
3379;SDS011;1703;51.964;7.642;2024-03-17T05:20:02;18.60;;;7.27;;
3379;SDS011;1703;51.964;7.642;2024-03-17T05:22:30;10.00;;;7.47;;
3379;SDS011;1703;51.964;7.642;2024-03-17T05:24:57;11.10;;;7.03;;
3379;SDS011;1703;51.964;7.642;2024-03-17T05:27:24;10.23;;;6.77;;
3379;SDS011;1703;51.964;7.642;2024-03-17T05:29:50;12.53;;;7.07;;
3379;SDS011;1703;51.964;7.642;2024-03-17T05:32:18;11.37;;;6.30;;
3379;SDS011;1703;51.964;7.642;2024-03-17T05:34:45;10.07;;;5.63;;
3379;SDS011;1703;51.964;7.642;2024-03-17T05:37:12;11.83;;;6.87;;
3379;SDS011;1703;51.964;7.642;2024-03-17T05:39:37;10.03;;;6.13;;
3379;SDS011;1703;51.964;7.642;2024-03-17T05:42:04;17.37;;;8.33;;
3379;SDS011;1703;51.964;7.642;2024-03-17T05:44:32;8.30;;;6.30;;
3379;SDS011;1703;51.964;7.642;2024-03-17T05:47:14;9.83;;;7.23;;
3379;SDS011;1703;51.964;7.642;2024-03-17T05:49:43;12.13;;;6.63;;
3379;SDS011;1703;51.964;7.642;2024-03-17T05:52:10;12.70;;;7.10;;
3379;SDS011;1703;51.964;7.642;2024-03-17T05:54:37;14.50;;;7.80;;
3379;SDS011;1703;51.964;7.642;2024-03-17T05:57:04;8.70;;;6.10;;
3379;SDS011;1703;51.964;7.642;2024-03-17T05:59:32;12.37;;;5.63;;
3379;SDS011;1703;51.964;7.642;2024-03-17T06:01:58;12.33;;;6.53;;
3379;SDS011;1703;51.964;7.642;2024-03-17T06:04:26;44.00;;;7.97;;
3379;SDS011;1703;51.964;7.642;2024-03-17T06:06:54;11.27;;;6.33;;
3379;SDS011;1703;51.964;7.642;2024-03-17T06:09:20;8.30;;;6.17;;
3379;SDS011;1703;51.964;7.642;2024-03-17T06:11:48;13.23;;;7.00;;
3379;SDS011;1703;51.964;7.642;2024-03-17T06:14:15;13.13;;;7.57;;
3379;SDS011;1703;51.964;7.642;2024-03-17T06:16:42;10.50;;;7.60;;
3379;SDS011;1703;51.964;7.642;2024-03-17T06:19:10;9.93;;;6.60;;
3379;SDS011;1703;51.964;7.642;2024-03-17T06:21:37;12.47;;;7.23;;
3379;SDS011;1703;51.964;7.642;2024-03-17T06:24:06;10.33;;;7.13;;
3379;SDS011;1703;51.964;7.642;2024-03-17T06:26:33;11.10;;;7.23;;
3379;SDS011;1703;51.964;7.642;2024-03-17T06:29:00;11.37;;;6.73;;
3379;SDS011;1703;51.964;7.642;2024-03-17T06:31:27;9.97;;;5.50;;
3379;SDS011;1703;51.964;7.642;2024-03-17T06:33:54;9.57;;;6.20;;
3379;SDS011;1703;51.964;7.642;2024-03-17T06:36:21;12.63;;;6.70;;
3379;SDS011;1703;51.964;7.642;2024-03-17T06:38:48;8.23;;;5.87;;
3379;SDS011;1703;51.964;7.642;2024-03-17T06:41:16;8.63;;;6.53;;
3379;SDS011;1703;51.964;7.642;2024-03-17T06:43:43;8.50;;;6.33;;
3379;SDS011;1703;51.964;7.642;2024-03-17T06:46:09;8.03;;;6.00;;
3379;SDS011;1703;51.964;7.642;2024-03-17T06:48:36;10.27;;;6.70;;
3379;SDS011;1703;51.964;7.642;2024-03-17T06:51:03;11.80;;;7.30;;
3379;SDS011;1703;51.964;7.642;2024-03-17T06:53:30;11.00;;;6.03;;
3379;SDS011;1703;51.964;7.642;2024-03-17T06:55:59;16.57;;;7.27;;
3379;SDS011;1703;51.964;7.642;2024-03-17T06:58:27;14.23;;;7.80;;
3379;SDS011;1703;51.964;7.642;2024-03-17T07:00:55;14.67;;;7.93;;
3379;SDS011;1703;51.964;7.642;2024-03-17T07:03:23;16.80;;;8.60;;
3379;SDS011;1703;51.964;7.642;2024-03-17T07:05:51;21.00;;;8.00;;
3379;SDS011;1703;51.964;7.642;2024-03-17T07:08:19;10.03;;;7.53;;
3379;SDS011;1703;51.964;7.642;2024-03-17T07:10:54;9.60;;;6.53;;
3379;SDS011;1703;51.964;7.642;2024-03-17T07:13:22;14.80;;;7.77;;
3379;SDS011;1703;51.964;7.642;2024-03-17T07:15:50;11.30;;;6.80;;
3379;SDS011;1703;51.964;7.642;2024-03-17T07:18:17;11.50;;;6.90;;
3379;SDS011;1703;51.964;7.642;2024-03-17T07:20:44;12.80;;;7.43;;
3379;SDS011;1703;51.964;7.642;2024-03-17T07:23:13;13.97;;;7.97;;
3379;SDS011;1703;51.964;7.642;2024-03-17T07:25:39;13.33;;;7.80;;
3379;SDS011;1703;51.964;7.642;2024-03-17T07:28:07;9.73;;;7.50;;
3379;SDS011;1703;51.964;7.642;2024-03-17T07:30:34;10.20;;;6.83;;
3379;SDS011;1703;51.964;7.642;2024-03-17T07:33:02;10.50;;;7.50;;
3379;SDS011;1703;51.964;7.642;2024-03-17T07:35:29;12.50;;;8.10;;
3379;SDS011;1703;51.964;7.642;2024-03-17T07:37:56;11.50;;;8.00;;
3379;SDS011;1703;51.964;7.642;2024-03-17T07:40:23;11.50;;;7.67;;
3379;SDS011;1703;51.964;7.642;2024-03-17T07:42:50;10.43;;;7.60;;
3379;SDS011;1703;51.964;7.642;2024-03-17T07:45:16;10.60;;;8.07;;
3379;SDS011;1703;51.964;7.642;2024-03-17T07:47:43;11.83;;;8.70;;
3379;SDS011;1703;51.964;7.642;2024-03-17T07:50:12;14.90;;;8.23;;
3379;SDS011;1703;51.964;7.642;2024-03-17T07:52:38;10.10;;;7.40;;
3379;SDS011;1703;51.964;7.642;2024-03-17T07:55:05;10.93;;;7.47;;
3379;SDS011;1703;51.964;7.642;2024-03-17T07:57:34;13.00;;;8.50;;
3379;SDS011;1703;51.964;7.642;2024-03-17T08:00:01;15.87;;;7.77;;
3379;SDS011;1703;51.964;7.642;2024-03-17T08:02:29;16.53;;;8.93;;
3379;SDS011;1703;51.964;7.642;2024-03-17T08:04:56;12.57;;;7.97;;
3379;SDS011;1703;51.964;7.642;2024-03-17T08:07:24;10.60;;;7.97;;
3379;SDS011;1703;51.964;7.642;2024-03-17T08:09:51;13.77;;;9.20;;
3379;SDS011;1703;51.964;7.642;2024-03-17T08:12:18;13.20;;;8.27;;
3379;SDS011;1703;51.964;7.642;2024-03-17T08:14:45;15.60;;;8.90;;
3379;SDS011;1703;51.964;7.642;2024-03-17T08:17:12;12.80;;;9.27;;
3379;SDS011;1703;51.964;7.642;2024-03-17T08:19:38;15.63;;;8.93;;
3379;SDS011;1703;51.964;7.642;2024-03-17T08:22:06;20.77;;;8.73;;
3379;SDS011;1703;51.964;7.642;2024-03-17T08:24:34;15.80;;;8.13;;
3379;SDS011;1703;51.964;7.642;2024-03-17T08:27:01;17.03;;;8.27;;
3379;SDS011;1703;51.964;7.642;2024-03-17T08:29:28;15.50;;;8.87;;
3379;SDS011;1703;51.964;7.642;2024-03-17T08:31:55;19.93;;;10.87;;
3379;SDS011;1703;51.964;7.642;2024-03-17T08:34:22;17.53;;;9.70;;
3379;SDS011;1703;51.964;7.642;2024-03-17T08:36:49;16.17;;;10.40;;
3379;SDS011;1703;51.964;7.642;2024-03-17T08:39:15;15.00;;;8.87;;
3379;SDS011;1703;51.964;7.642;2024-03-17T08:41:44;14.20;;;9.40;;
3379;SDS011;1703;51.964;7.642;2024-03-17T08:44:10;10.17;;;7.53;;
3379;SDS011;1703;51.964;7.642;2024-03-17T08:46:37;14.20;;;8.87;;
3379;SDS011;1703;51.964;7.642;2024-03-17T08:49:04;13.03;;;8.40;;
3379;SDS011;1703;51.964;7.642;2024-03-17T08:51:31;17.90;;;8.60;;
3379;SDS011;1703;51.964;7.642;2024-03-17T08:53:58;13.07;;;10.37;;
3379;SDS011;1703;51.964;7.642;2024-03-17T08:56:25;14.30;;;8.33;;
3379;SDS011;1703;51.964;7.642;2024-03-17T08:58:53;13.87;;;8.70;;
3379;SDS011;1703;51.964;7.642;2024-03-17T09:01:20;12.10;;;9.60;;
3379;SDS011;1703;51.964;7.642;2024-03-17T09:03:47;17.77;;;9.27;;
3379;SDS011;1703;51.964;7.642;2024-03-17T09:06:14;16.10;;;8.87;;
3379;SDS011;1703;51.964;7.642;2024-03-17T09:08:44;20.93;;;8.53;;
3379;SDS011;1703;51.964;7.642;2024-03-17T09:11:12;10.63;;;8.00;;
3379;SDS011;1703;51.964;7.642;2024-03-17T09:13:39;11.70;;;7.40;;
3379;SDS011;1703;51.964;7.642;2024-03-17T09:16:07;11.93;;;6.83;;
3379;SDS011;1703;51.964;7.642;2024-03-17T09:18:36;13.50;;;8.80;;
3379;SDS011;1703;51.964;7.642;2024-03-17T09:21:04;15.33;;;8.37;;
3379;SDS011;1703;51.964;7.642;2024-03-17T09:23:32;9.57;;;7.37;;
3379;SDS011;1703;51.964;7.642;2024-03-17T09:26:00;13.43;;;9.03;;
3379;SDS011;1703;51.964;7.642;2024-03-17T09:28:28;12.37;;;7.30;;
3379;SDS011;1703;51.964;7.642;2024-03-17T09:30:55;11.10;;;7.80;;
3379;SDS011;1703;51.964;7.642;2024-03-17T09:33:24;9.43;;;7.50;;
3379;SDS011;1703;51.964;7.642;2024-03-17T09:35:52;11.93;;;7.90;;
3379;SDS011;1703;51.964;7.642;2024-03-17T09:38:20;10.53;;;8.20;;
3379;SDS011;1703;51.964;7.642;2024-03-17T09:40:47;11.67;;;7.10;;
3379;SDS011;1703;51.964;7.642;2024-03-17T09:43:16;10.43;;;7.30;;
3379;SDS011;1703;51.964;7.642;2024-03-17T09:45:43;11.13;;;8.50;;
3379;SDS011;1703;51.964;7.642;2024-03-17T09:48:11;11.93;;;8.03;;
3379;SDS011;1703;51.964;7.642;2024-03-17T09:50:44;11.67;;;7.53;;
3379;SDS011;1703;51.964;7.642;2024-03-17T09:53:17;14.03;;;8.33;;
3379;SDS011;1703;51.964;7.642;2024-03-17T09:55:49;7.87;;;7.07;;
3379;SDS011;1703;51.964;7.642;2024-03-17T09:58:16;18.40;;;8.30;;
3379;SDS011;1703;51.964;7.642;2024-03-17T10:00:43;10.90;;;6.90;;
3379;SDS011;1703;51.964;7.642;2024-03-17T10:03:11;13.50;;;9.70;;
3379;SDS011;1703;51.964;7.642;2024-03-17T10:05:38;8.50;;;6.80;;
3379;SDS011;1703;51.964;7.642;2024-03-17T10:08:07;8.40;;;6.50;;
3379;SDS011;1703;51.964;7.642;2024-03-17T10:10:51;11.20;;;7.07;;
3379;SDS011;1703;51.964;7.642;2024-03-17T10:13:19;10.40;;;6.77;;
3379;SDS011;1703;51.964;7.642;2024-03-17T10:15:47;8.13;;;5.73;;
3379;SDS011;1703;51.964;7.642;2024-03-17T10:18:19;9.13;;;7.30;;
3379;SDS011;1703;51.964;7.642;2024-03-17T10:20:48;9.60;;;7.00;;
3379;SDS011;1703;51.964;7.642;2024-03-17T10:23:19;14.03;;;6.67;;
3379;SDS011;1703;51.964;7.642;2024-03-17T10:25:45;10.33;;;6.80;;
3379;SDS011;1703;51.964;7.642;2024-03-17T10:28:13;8.10;;;7.30;;
3379;SDS011;1703;51.964;7.642;2024-03-17T10:30:42;10.23;;;8.10;;
3379;SDS011;1703;51.964;7.642;2024-03-17T10:33:23;10.37;;;7.23;;
3379;SDS011;1703;51.964;7.642;2024-03-17T10:35:57;10.67;;;7.33;;
3379;SDS011;1703;51.964;7.642;2024-03-17T10:38:27;12.83;;;8.67;;
3379;SDS011;1703;51.964;7.642;2024-03-17T10:40:54;11.03;;;8.13;;
3379;SDS011;1703;51.964;7.642;2024-03-17T10:43:21;10.00;;;6.57;;
3379;SDS011;1703;51.964;7.642;2024-03-17T10:45:51;9.93;;;7.30;;
3379;SDS011;1703;51.964;7.642;2024-03-17T10:48:19;13.93;;;7.13;;
3379;SDS011;1703;51.964;7.642;2024-03-17T10:50:52;8.07;;;6.10;;
3379;SDS011;1703;51.964;7.642;2024-03-17T10:53:23;12.17;;;6.70;;
3379;SDS011;1703;51.964;7.642;2024-03-17T10:55:58;9.17;;;6.77;;
3379;SDS011;1703;51.964;7.642;2024-03-17T10:58:33;11.53;;;6.37;;
3379;SDS011;1703;51.964;7.642;2024-03-17T11:01:02;7.70;;;6.37;;
3379;SDS011;1703;51.964;7.642;2024-03-17T11:03:30;8.17;;;6.80;;
3379;SDS011;1703;51.964;7.642;2024-03-17T11:05:58;6.80;;;6.10;;
3379;SDS011;1703;51.964;7.642;2024-03-17T11:08:25;9.40;;;6.63;;
3379;SDS011;1703;51.964;7.642;2024-03-17T11:10:54;12.17;;;6.57;;
3379;SDS011;1703;51.964;7.642;2024-03-17T11:13:24;11.30;;;7.77;;
3379;SDS011;1703;51.964;7.642;2024-03-17T11:15:53;6.83;;;6.07;;
3379;SDS011;1703;51.964;7.642;2024-03-17T11:21:18;12.57;;;5.83;;
3379;SDS011;1703;51.964;7.642;2024-03-17T11:23:56;9.13;;;6.17;;
3379;SDS011;1703;51.964;7.642;2024-03-17T11:26:30;7.80;;;5.90;;
3379;SDS011;1703;51.964;7.642;2024-03-17T11:28:58;6.03;;;5.43;;
3379;SDS011;1703;51.964;7.642;2024-03-17T11:31:32;7.87;;;6.37;;
3379;SDS011;1703;51.964;7.642;2024-03-17T11:34:36;10.13;;;6.77;;
3379;SDS011;1703;51.964;7.642;2024-03-17T11:37:04;7.77;;;5.90;;
3379;SDS011;1703;51.964;7.642;2024-03-17T11:39:45;7.53;;;6.33;;
3379;SDS011;1703;51.964;7.642;2024-03-17T11:42:15;7.23;;;5.90;;
3379;SDS011;1703;51.964;7.642;2024-03-17T11:44:43;10.43;;;6.50;;
3379;SDS011;1703;51.964;7.642;2024-03-17T11:47:18;6.83;;;6.10;;
3379;SDS011;1703;51.964;7.642;2024-03-17T11:49:45;6.27;;;5.67;;
3379;SDS011;1703;51.964;7.642;2024-03-17T11:52:12;9.83;;;5.83;;
3379;SDS011;1703;51.964;7.642;2024-03-17T11:54:40;12.07;;;7.27;;
3379;SDS011;1703;51.964;7.642;2024-03-17T11:57:07;7.50;;;5.60;;
3379;SDS011;1703;51.964;7.642;2024-03-17T11:59:36;8.93;;;6.03;;
3379;SDS011;1703;51.964;7.642;2024-03-17T12:02:06;9.27;;;5.90;;
3379;SDS011;1703;51.964;7.642;2024-03-17T12:04:38;7.70;;;5.67;;
3379;SDS011;1703;51.964;7.642;2024-03-17T12:07:07;5.40;;;4.90;;
3379;SDS011;1703;51.964;7.642;2024-03-17T12:09:38;6.77;;;5.90;;
3379;SDS011;1703;51.964;7.642;2024-03-17T12:12:08;9.50;;;5.90;;
3379;SDS011;1703;51.964;7.642;2024-03-17T12:14:37;7.77;;;6.20;;
3379;SDS011;1703;51.964;7.642;2024-03-17T12:17:04;7.40;;;5.40;;
3379;SDS011;1703;51.964;7.642;2024-03-17T12:19:33;10.00;;;6.33;;
3379;SDS011;1703;51.964;7.642;2024-03-17T12:21:59;6.47;;;4.80;;
3379;SDS011;1703;51.964;7.642;2024-03-17T12:24:27;6.77;;;4.90;;
3379;SDS011;1703;51.964;7.642;2024-03-17T12:26:55;9.83;;;6.63;;
3379;SDS011;1703;51.964;7.642;2024-03-17T12:29:28;8.43;;;6.27;;
3379;SDS011;1703;51.964;7.642;2024-03-17T12:31:59;9.23;;;5.00;;
3379;SDS011;1703;51.964;7.642;2024-03-17T12:34:27;7.80;;;5.43;;
3379;SDS011;1703;51.964;7.642;2024-03-17T12:36:56;10.30;;;5.63;;
3379;SDS011;1703;51.964;7.642;2024-03-17T12:39:24;7.50;;;5.70;;
3379;SDS011;1703;51.964;7.642;2024-03-17T12:42:01;9.00;;;5.10;;
3379;SDS011;1703;51.964;7.642;2024-03-17T12:44:29;8.33;;;5.20;;
3379;SDS011;1703;51.964;7.642;2024-03-17T12:46:55;9.30;;;5.97;;
3379;SDS011;1703;51.964;7.642;2024-03-17T12:49:24;6.90;;;5.03;;
3379;SDS011;1703;51.964;7.642;2024-03-17T12:51:50;7.73;;;5.77;;
3379;SDS011;1703;51.964;7.642;2024-03-17T12:54:19;6.47;;;4.67;;
3379;SDS011;1703;51.964;7.642;2024-03-17T12:56:48;6.60;;;5.57;;
3379;SDS011;1703;51.964;7.642;2024-03-17T12:59:36;6.97;;;5.30;;
3379;SDS011;1703;51.964;7.642;2024-03-17T13:02:24;7.20;;;5.00;;
3379;SDS011;1703;51.964;7.642;2024-03-17T13:05:07;6.23;;;5.60;;
3379;SDS011;1703;51.964;7.642;2024-03-17T13:07:45;9.83;;;5.83;;
3379;SDS011;1703;51.964;7.642;2024-03-17T13:10:13;9.97;;;5.83;;
3379;SDS011;1703;51.964;7.642;2024-03-17T13:12:41;6.27;;;5.33;;
3379;SDS011;1703;51.964;7.642;2024-03-17T13:15:08;8.23;;;5.60;;
3379;SDS011;1703;51.964;7.642;2024-03-17T13:17:40;7.43;;;4.50;;
3379;SDS011;1703;51.964;7.642;2024-03-17T13:20:08;5.53;;;4.93;;
3379;SDS011;1703;51.964;7.642;2024-03-17T13:22:38;7.80;;;5.67;;
3379;SDS011;1703;51.964;7.642;2024-03-17T13:25:06;6.90;;;5.57;;
3379;SDS011;1703;51.964;7.642;2024-03-17T13:27:36;4.97;;;4.57;;
3379;SDS011;1703;51.964;7.642;2024-03-17T13:30:04;5.90;;;5.13;;
3379;SDS011;1703;51.964;7.642;2024-03-17T13:32:32;6.13;;;5.23;;
3379;SDS011;1703;51.964;7.642;2024-03-17T13:34:59;6.20;;;5.43;;
3379;SDS011;1703;51.964;7.642;2024-03-17T13:37:27;5.70;;;5.07;;
3379;SDS011;1703;51.964;7.642;2024-03-17T13:39:54;6.03;;;4.90;;
3379;SDS011;1703;51.964;7.642;2024-03-17T13:42:20;10.70;;;5.53;;
3379;SDS011;1703;51.964;7.642;2024-03-17T13:44:47;7.17;;;5.53;;
3379;SDS011;1703;51.964;7.642;2024-03-17T13:47:14;7.93;;;5.00;;
3379;SDS011;1703;51.964;7.642;2024-03-17T13:49:43;7.10;;;5.93;;
3379;SDS011;1703;51.964;7.642;2024-03-17T13:52:10;6.40;;;4.80;;
3379;SDS011;1703;51.964;7.642;2024-03-17T13:54:38;7.33;;;5.60;;
3379;SDS011;1703;51.964;7.642;2024-03-17T13:57:05;11.73;;;6.17;;
3379;SDS011;1703;51.964;7.642;2024-03-17T13:59:32;6.10;;;5.50;;
3379;SDS011;1703;51.964;7.642;2024-03-17T14:01:59;6.97;;;5.00;;
3379;SDS011;1703;51.964;7.642;2024-03-17T14:04:27;5.77;;;4.70;;
3379;SDS011;1703;51.964;7.642;2024-03-17T14:06:54;8.43;;;5.57;;
3379;SDS011;1703;51.964;7.642;2024-03-17T14:09:20;5.73;;;5.13;;
3379;SDS011;1703;51.964;7.642;2024-03-17T14:11:49;8.23;;;5.87;;
3379;SDS011;1703;51.964;7.642;2024-03-17T14:16:49;6.10;;;4.87;;
3379;SDS011;1703;51.964;7.642;2024-03-17T14:19:16;7.30;;;5.30;;
3379;SDS011;1703;51.964;7.642;2024-03-17T14:21:43;9.27;;;4.80;;
3379;SDS011;1703;51.964;7.642;2024-03-17T14:24:10;5.63;;;5.00;;
3379;SDS011;1703;51.964;7.642;2024-03-17T14:26:37;11.13;;;5.20;;
3379;SDS011;1703;51.964;7.642;2024-03-17T14:29:05;5.50;;;4.83;;
3379;SDS011;1703;51.964;7.642;2024-03-17T14:31:32;7.50;;;4.90;;
3379;SDS011;1703;51.964;7.642;2024-03-17T14:34:01;6.70;;;5.93;;
3379;SDS011;1703;51.964;7.642;2024-03-17T14:36:30;7.70;;;5.27;;
3379;SDS011;1703;51.964;7.642;2024-03-17T14:38:58;6.53;;;5.00;;
3379;SDS011;1703;51.964;7.642;2024-03-17T14:41:27;6.30;;;4.83;;
3379;SDS011;1703;51.964;7.642;2024-03-17T14:43:54;5.03;;;4.20;;
3379;SDS011;1703;51.964;7.642;2024-03-17T14:46:23;5.10;;;4.30;;
3379;SDS011;1703;51.964;7.642;2024-03-17T14:48:51;6.00;;;5.03;;
3379;SDS011;1703;51.964;7.642;2024-03-17T14:51:17;6.83;;;5.33;;
3379;SDS011;1703;51.964;7.642;2024-03-17T14:53:46;5.10;;;4.27;;
3379;SDS011;1703;51.964;7.642;2024-03-17T14:56:14;4.23;;;3.83;;
3379;SDS011;1703;51.964;7.642;2024-03-17T14:58:42;7.07;;;4.90;;
3379;SDS011;1703;51.964;7.642;2024-03-17T15:01:09;5.77;;;5.17;;
3379;SDS011;1703;51.964;7.642;2024-03-17T15:03:38;6.90;;;5.00;;
3379;SDS011;1703;51.964;7.642;2024-03-17T15:06:09;6.37;;;4.93;;
3379;SDS011;1703;51.964;7.642;2024-03-17T15:08:37;4.73;;;4.23;;
3379;SDS011;1703;51.964;7.642;2024-03-17T15:11:04;10.63;;;5.40;;
3379;SDS011;1703;51.964;7.642;2024-03-17T15:13:32;7.63;;;5.00;;
3379;SDS011;1703;51.964;7.642;2024-03-17T15:16:00;6.17;;;3.90;;
3379;SDS011;1703;51.964;7.642;2024-03-17T15:18:29;5.67;;;4.57;;
3379;SDS011;1703;51.964;7.642;2024-03-17T15:20:58;7.27;;;4.80;;